createdAt,value
2023-02-27T00:00:32.964Z,43.57
2023-02-27T00:01:35.123Z,43.75
2023-02-27T00:02:36.981Z,43.45
2023-02-27T00:03:38.919Z,43.69
2023-02-27T00:04:40.926Z,43.54
2023-02-27T00:05:42.755Z,43.53
2023-02-27T00:06:44.477Z,43.45
2023-02-27T00:07:46.307Z,43.54
2023-02-27T00:08:48.122Z,43.64
2023-02-27T00:09:49.927Z,43.44
2023-02-27T00:10:51.831Z,43.54
2023-02-27T00:11:53.551Z,43.83
2023-02-27T00:12:55.965Z,43.88
2023-02-27T00:13:57.843Z,43.69
2023-02-27T00:14:59.610Z,44.12
2023-02-27T00:16:01.601Z,43.86
2023-02-27T00:17:03.420Z,43.72
2023-02-27T00:18:05.202Z,43.93
2023-02-27T00:19:07.105Z,43.96
2023-02-27T00:20:13.865Z,43.97
2023-02-27T00:21:15.712Z,43.98
2023-02-27T00:22:17.477Z,44.08
2023-02-27T00:23:19.252Z,43.92
2023-02-27T00:24:22.370Z,43.91
2023-02-27T00:25:24.217Z,44.06
2023-02-27T00:26:26.432Z,44.18
2023-02-27T00:27:28.279Z,44.38
2023-02-27T00:28:30.277Z,44.23
2023-02-27T00:29:32.012Z,44.02
2023-02-27T00:30:34.230Z,44.53
2023-02-27T00:31:36.183Z,44.39
2023-02-27T00:32:38.354Z,44.69
2023-02-27T00:33:40.268Z,44.23
2023-02-27T00:34:42.062Z,44.32
2023-02-27T00:35:43.810Z,44.63
2023-02-27T00:36:45.560Z,44.35
2023-02-27T00:37:47.718Z,44.30
2023-02-27T00:38:49.478Z,44.38
2023-02-27T00:39:51.348Z,44.57
2023-02-27T00:40:53.126Z,44.92
2023-02-27T00:41:54.942Z,44.65
2023-02-27T00:42:56.688Z,44.64
2023-02-27T00:43:58.483Z,44.39
2023-02-27T00:45:00.374Z,44.46
2023-02-27T00:46:02.154Z,44.43
2023-02-27T00:47:03.977Z,44.59
2023-02-27T00:48:05.772Z,44.60
2023-02-27T00:49:07.540Z,44.66
2023-02-27T00:50:10.650Z,44.78
2023-02-27T00:51:13.151Z,44.66
2023-02-27T00:52:14.963Z,44.74
2023-02-27T00:53:17.343Z,45.06
2023-02-27T00:54:19.429Z,44.87
2023-02-27T00:55:21.262Z,44.80
2023-02-27T00:56:23.143Z,45.20
2023-02-27T00:57:25.019Z,44.77
2023-02-27T00:58:26.853Z,44.75
2023-02-27T00:59:28.719Z,45.05
2023-02-27T01:00:30.835Z,45.00
2023-02-27T01:01:32.675Z,44.91
2023-02-27T01:02:35.278Z,45.07
2023-02-27T01:03:37.233Z,44.94
2023-02-27T01:04:39.033Z,45.12
2023-02-27T01:05:40.867Z,45.07
2023-02-27T01:06:42.585Z,44.71
2023-02-27T01:07:44.326Z,44.95
2023-02-27T01:08:46.380Z,45.10
2023-02-27T01:09:48.189Z,45.20
2023-02-27T01:10:49.953Z,44.78
2023-02-27T01:11:52.462Z,45.25
2023-02-27T01:12:54.218Z,45.38
2023-02-27T01:13:56.952Z,44.74
2023-02-27T01:14:58.857Z,45.20
2023-02-27T01:16:00.800Z,45.24
2023-02-27T01:17:03.504Z,45.27
2023-02-27T01:18:05.244Z,45.36
2023-02-27T01:19:07.135Z,45.17
2023-02-27T01:20:11.913Z,45.23
2023-02-27T01:21:13.691Z,45.57
2023-02-27T01:22:15.534Z,45.33
2023-02-27T01:23:17.256Z,45.25
2023-02-27T01:24:19.784Z,45.34
2023-02-27T01:25:21.552Z,45.47
2023-02-27T01:26:23.357Z,45.76
2023-02-27T01:27:25.167Z,45.23
2023-02-27T01:28:27.173Z,45.39
2023-02-27T01:29:28.953Z,45.35
2023-02-27T01:30:30.735Z,45.29
2023-02-27T01:31:32.613Z,45.50
2023-02-27T01:32:34.537Z,45.56
2023-02-27T01:33:36.396Z,45.51
2023-02-27T01:34:38.262Z,45.34
2023-02-27T01:35:40.563Z,45.51
2023-02-27T01:36:42.364Z,45.62
2023-02-27T01:37:44.590Z,45.57
2023-02-27T01:38:46.436Z,45.71
2023-02-27T01:39:48.194Z,45.87
2023-02-27T01:40:50.009Z,45.48
2023-02-27T01:41:52.146Z,46.10
2023-02-27T01:42:54.570Z,45.55
2023-02-27T01:43:59.887Z,45.64
2023-02-27T01:45:30.679Z,45.52
2023-02-27T01:46:34.386Z,45.83
2023-02-27T01:47:43.056Z,45.74
2023-02-27T01:48:45.139Z,45.37
2023-02-27T01:49:46.945Z,45.82
2023-02-27T01:51:03.671Z,45.81
2023-02-27T01:52:11.039Z,45.89
2023-02-27T01:53:14.703Z,45.75
2023-02-27T01:54:22.442Z,45.75
2023-02-27T01:55:27.183Z,45.71
2023-02-27T01:56:32.227Z,45.80
2023-02-27T01:57:36.039Z,46.08
2023-02-27T01:58:38.882Z,45.61
2023-02-27T01:59:43.216Z,45.86
2023-02-27T02:00:46.308Z,45.67
2023-02-27T02:01:48.768Z,45.56
2023-02-27T02:03:45.087Z,45.60
2023-02-27T02:04:48.434Z,45.65
2023-02-27T02:05:53.374Z,45.68
2023-02-27T02:07:04.537Z,45.82
2023-02-27T02:08:07.506Z,45.63
2023-02-27T02:09:11.209Z,45.90
2023-02-27T02:10:16.102Z,45.90
2023-02-27T02:11:20.717Z,46.12
2023-02-27T02:12:28.686Z,45.87
2023-02-27T02:13:31.649Z,45.48
2023-02-27T02:14:33.470Z,45.74
2023-02-27T02:15:41.817Z,45.63
2023-02-27T02:17:11.191Z,45.77
2023-02-27T02:18:36.174Z,46.26
2023-02-27T02:19:55.285Z,45.72
2023-02-27T02:21:03.958Z,46.21
2023-02-27T02:22:40.773Z,45.89
2023-02-27T02:24:10.334Z,46.17
2023-02-27T02:25:56.726Z,46.03
2023-02-27T02:27:18.921Z,45.99
2023-02-27T02:28:57.659Z,46.22
2023-02-27T02:30:08.236Z,46.52
2023-02-27T02:31:50.899Z,45.59
2023-02-27T02:33:12.531Z,45.69
2023-02-27T02:34:51.033Z,45.90
2023-02-27T02:36:23.046Z,46.44
2023-02-27T02:38:14.498Z,45.70
2023-02-27T02:39:43.430Z,46.08
2023-02-27T02:41:13.952Z,45.73
2023-02-27T02:42:22.236Z,45.83
2023-02-27T02:44:11.939Z,45.48
2023-02-27T02:45:27.918Z,46.05
2023-02-27T02:46:47.465Z,45.63
2023-02-27T02:48:33.905Z,46.00
2023-02-27T02:50:13.153Z,45.69
2023-02-27T02:51:36.895Z,46.10
2023-02-27T02:52:51.800Z,46.22
2023-02-27T02:54:01.716Z,46.22
2023-02-27T02:55:35.524Z,45.75
2023-02-27T02:56:52.781Z,46.09
2023-02-27T02:57:59.609Z,45.67
2023-02-27T02:59:36.274Z,46.13
2023-02-27T03:00:51.738Z,46.29
2023-02-27T03:02:03.678Z,46.10
2023-02-27T03:03:25.030Z,45.80
2023-02-27T03:04:42.980Z,46.13
2023-02-27T03:06:14.033Z,46.23
2023-02-27T03:07:34.177Z,46.09
2023-02-27T03:08:50.008Z,46.30
2023-02-27T03:10:32.193Z,46.46
2023-02-27T03:11:40.993Z,45.86
2023-02-27T03:12:52.530Z,46.34
2023-02-27T03:14:06.907Z,46.20
2023-02-27T03:15:39.257Z,45.84
2023-02-27T03:16:48.817Z,46.61
2023-02-27T03:18:06.815Z,45.91
2023-02-27T03:19:25.907Z,45.77
2023-02-27T03:20:45.357Z,46.12
2023-02-27T03:22:05.187Z,46.29
2023-02-27T03:23:16.876Z,46.36
2023-02-27T03:24:32.058Z,46.30
2023-02-27T03:25:35.898Z,46.54
2023-02-27T03:26:44.697Z,46.06
2023-02-27T03:28:13.528Z,46.51
2023-02-27T03:29:26.406Z,46.36
2023-02-27T03:30:56.340Z,46.57
2023-02-27T03:32:13.254Z,46.78
2023-02-27T03:33:27.174Z,46.19
2023-02-27T03:34:41.192Z,46.06
2023-02-27T03:36:03.019Z,46.24
2023-02-27T03:37:38.415Z,46.25
2023-02-27T03:38:51.293Z,46.38
2023-02-27T03:40:12.492Z,46.08
2023-02-27T03:41:47.224Z,46.62
2023-02-27T03:43:28.689Z,46.28
2023-02-27T03:44:52.457Z,46.03
2023-02-27T03:46:16.632Z,46.61
2023-02-27T03:47:18.859Z,46.55
2023-02-27T03:48:21.062Z,46.62
2023-02-27T03:49:23.246Z,46.36
2023-02-27T03:50:25.204Z,46.25
2023-02-27T03:51:28.808Z,46.79
2023-02-27T03:52:31.621Z,46.09
2023-02-27T03:53:46.048Z,46.87
2023-02-27T03:55:03.194Z,46.74
2023-02-27T03:56:09.163Z,46.81
2023-02-27T03:57:13.370Z,46.46
2023-02-27T03:58:15.363Z,46.75
2023-02-27T03:59:17.378Z,46.41
2023-02-27T04:00:25.164Z,46.52
2023-02-27T04:01:27.537Z,47.15
2023-02-27T04:02:29.989Z,46.68
2023-02-27T04:03:39.294Z,46.01
2023-02-27T04:04:41.219Z,46.27
2023-02-27T04:05:43.123Z,46.83
2023-02-27T04:07:23.139Z,46.48
2023-02-27T04:09:03.199Z,46.61
2023-02-27T04:10:23.618Z,46.77
2023-02-27T04:12:10.202Z,46.58
2023-02-27T04:13:23.831Z,46.27
2023-02-27T04:14:54.271Z,46.93
2023-02-27T04:16:31.196Z,47.00
2023-02-27T04:17:56.560Z,46.39
2023-02-27T04:19:31.648Z,46.12
2023-02-27T04:20:48.400Z,46.94
2023-02-27T04:21:55.988Z,46.86
2023-02-27T04:23:12.302Z,46.84
2023-02-27T04:24:23.042Z,46.46
2023-02-27T04:25:44.492Z,46.34
2023-02-27T04:27:04.811Z,46.48
2023-02-27T04:28:10.314Z,46.52
2023-02-27T04:29:33.210Z,47.09
2023-02-27T04:30:53.475Z,46.97
2023-02-27T04:32:07.080Z,46.72
2023-02-27T04:33:42.633Z,47.23
2023-02-27T04:34:54.753Z,46.46
2023-02-27T04:36:06.896Z,47.24
2023-02-27T04:37:35.712Z,47.17
2023-02-27T04:38:53.569Z,46.58
2023-02-27T04:40:09.208Z,46.46
2023-02-27T04:41:23.407Z,47.07
2023-02-27T04:42:34.785Z,46.85
2023-02-27T04:43:40.031Z,46.90
2023-02-27T04:44:44.689Z,46.63
2023-02-27T04:45:49.447Z,46.43
2023-02-27T04:46:54.162Z,46.57
2023-02-27T04:48:20.120Z,46.19
2023-02-27T04:49:28.149Z,46.90
2023-02-27T04:50:51.751Z,47.02
2023-02-27T04:52:02.582Z,46.44
2023-02-27T04:53:22.221Z,47.05
2023-02-27T04:54:51.882Z,46.45
2023-02-27T04:56:11.155Z,46.59
2023-02-27T04:57:22.604Z,47.24
2023-02-27T04:58:33.362Z,46.42
2023-02-27T04:59:43.118Z,46.66
2023-02-27T05:00:55.168Z,46.52
2023-02-27T05:02:16.103Z,47.22
2023-02-27T05:03:30.535Z,46.45
2023-02-27T05:04:38.362Z,46.65
2023-02-27T05:05:45.860Z,47.06
2023-02-27T05:06:51.040Z,46.60
2023-02-27T05:08:01.861Z,46.98
2023-02-27T05:09:22.518Z,46.37
2023-02-27T05:10:43.310Z,46.52
2023-02-27T05:11:56.328Z,47.03
2023-02-27T05:13:09.217Z,46.89
2023-02-27T05:14:41.849Z,47.04
2023-02-27T05:15:55.754Z,46.51
2023-02-27T05:17:28.950Z,46.58
2023-02-27T05:18:31.308Z,47.00
2023-02-27T05:19:37.233Z,46.43
2023-02-27T05:21:29.354Z,46.25
2023-02-27T05:22:40.871Z,46.95
2023-02-27T05:24:09.816Z,47.24
2023-02-27T05:25:37.360Z,46.55
2023-02-27T05:27:18.201Z,46.99
2023-02-27T05:28:33.258Z,46.64
2023-02-27T05:29:46.909Z,46.28
2023-02-27T05:31:12.635Z,46.91
2023-02-27T05:32:29.353Z,46.63
2023-02-27T05:34:00.220Z,46.63
2023-02-27T05:35:12.578Z,46.98
2023-02-27T05:36:46.689Z,46.43
2023-02-27T05:38:19.550Z,46.86
2023-02-27T05:39:25.447Z,46.54
2023-02-27T05:40:36.493Z,46.65
2023-02-27T05:41:50.242Z,46.97
2023-02-27T05:43:10.842Z,46.90
2023-02-27T05:44:30.358Z,47.19
2023-02-27T05:45:36.690Z,46.84
2023-02-27T05:46:46.223Z,46.68
2023-02-27T05:47:58.191Z,47.10
2023-02-27T05:49:09.660Z,46.76
2023-02-27T05:50:26.364Z,46.66
2023-02-27T05:51:34.384Z,46.63
2023-02-27T05:52:39.099Z,46.29
2023-02-27T05:53:50.996Z,46.34
2023-02-27T05:55:00.516Z,46.42
2023-02-27T05:56:06.722Z,46.52
2023-02-27T05:57:16.556Z,46.66
2023-02-27T05:58:45.616Z,46.33
2023-02-27T06:00:17.425Z,46.68
2023-02-27T06:01:19.223Z,46.43
2023-02-27T06:02:21.123Z,46.72
2023-02-27T06:03:23.569Z,46.71
2023-02-27T06:04:25.418Z,46.83
2023-02-27T06:05:28.242Z,46.55
2023-02-27T06:06:31.157Z,46.25
2023-02-27T06:07:34.985Z,46.54
2023-02-27T06:08:37.502Z,46.78
2023-02-27T06:09:39.437Z,46.21
2023-02-27T06:10:41.162Z,46.52
2023-02-27T06:11:42.977Z,46.62
2023-02-27T06:12:45.330Z,46.50
2023-02-27T06:13:47.135Z,46.66
2023-02-27T06:14:48.872Z,46.78
2023-02-27T06:15:50.907Z,47.27
2023-02-27T06:16:52.673Z,46.74
2023-02-27T06:17:54.727Z,46.48
2023-02-27T06:18:56.540Z,46.34
2023-02-27T06:19:58.309Z,46.96
2023-02-27T06:21:00.348Z,46.09
2023-02-27T06:22:02.132Z,47.04
2023-02-27T06:23:03.893Z,47.11
2023-02-27T06:24:05.964Z,46.93
2023-02-27T06:25:08.552Z,46.39
2023-02-27T06:26:14.088Z,46.79
2023-02-27T06:27:15.826Z,46.46
2023-02-27T06:28:17.624Z,46.52
2023-02-27T06:29:19.474Z,47.09
2023-02-27T06:30:21.338Z,46.53
2023-02-27T06:31:23.149Z,46.52
2023-02-27T06:32:25.764Z,46.91
2023-02-27T06:33:27.666Z,46.22
2023-02-27T06:34:29.451Z,46.70
2023-02-27T06:35:31.778Z,46.88
2023-02-27T06:36:33.662Z,46.40
2023-02-27T06:37:35.717Z,46.77
2023-02-27T06:38:37.505Z,46.79
2023-02-27T06:39:39.238Z,46.44
2023-02-27T06:40:41.055Z,46.92
2023-02-27T06:41:42.804Z,46.26
2023-02-27T06:42:45.409Z,46.25
2023-02-27T06:43:47.310Z,46.88
2023-02-27T06:44:49.157Z,46.42
2023-02-27T06:45:54.785Z,46.68
2023-02-27T06:46:56.622Z,46.79
2023-02-27T06:47:58.405Z,46.39
2023-02-27T06:49:00.233Z,46.70
2023-02-27T06:50:02.484Z,46.76
2023-02-27T06:51:04.866Z,46.04
2023-02-27T06:52:06.819Z,46.90
2023-02-27T06:53:08.662Z,46.61
2023-02-27T06:54:10.491Z,46.16
2023-02-27T06:55:12.592Z,46.76
2023-02-27T06:56:14.424Z,46.30
2023-02-27T06:57:16.177Z,46.30
2023-02-27T06:58:18.557Z,46.25
2023-02-27T06:59:20.317Z,46.59
2023-02-27T07:00:22.716Z,46.36
2023-02-27T07:01:26.228Z,46.06
2023-02-27T07:02:27.993Z,46.59
2023-02-27T07:03:29.712Z,45.94
2023-02-27T07:04:31.477Z,46.46
2023-02-27T07:05:33.545Z,46.07
2023-02-27T07:07:33.394Z,45.96
2023-02-27T07:07:58.720Z,46.38
2023-02-27T07:09:06.564Z,46.35
2023-02-27T07:10:13.278Z,45.95
2023-02-27T07:11:15.053Z,46.14
2023-02-27T07:12:16.816Z,46.08
2023-02-27T07:13:19.798Z,45.79
2023-02-27T07:14:22.494Z,45.85
2023-02-27T07:15:24.528Z,46.18
2023-02-27T07:16:26.619Z,45.95
2023-02-27T07:17:28.596Z,45.72
2023-02-27T07:18:30.788Z,45.77
2023-02-27T07:19:35.786Z,45.70
2023-02-27T07:20:37.589Z,45.53
2023-02-27T07:21:39.752Z,45.72
2023-02-27T07:22:41.911Z,46.03
2023-02-27T07:23:44.283Z,45.58
2023-02-27T07:24:46.004Z,45.65
2023-02-27T07:25:48.670Z,46.12
2023-02-27T07:26:50.496Z,45.46
2023-02-27T07:27:52.233Z,45.33
2023-02-27T07:28:54.748Z,45.51
2023-02-27T07:29:56.532Z,45.27
2023-02-27T07:30:58.345Z,45.49
2023-02-27T07:32:01.497Z,45.47
2023-02-27T07:33:03.499Z,45.05
2023-02-27T07:34:05.218Z,45.09
2023-02-27T07:35:08.569Z,45.21
2023-02-27T07:36:10.577Z,45.13
2023-02-27T07:37:12.976Z,45.09
2023-02-27T07:38:14.737Z,45.01
2023-02-27T07:39:16.542Z,45.02
2023-02-27T07:40:18.752Z,44.74
2023-02-27T07:41:30.068Z,44.82
2023-02-27T07:42:32.669Z,44.81
2023-02-27T07:43:34.548Z,44.75
2023-02-27T07:44:36.466Z,44.65
2023-02-27T07:45:38.393Z,44.54
2023-02-27T07:46:40.266Z,44.23
2023-02-27T07:47:42.212Z,44.59
2023-02-27T07:48:43.944Z,44.65
2023-02-27T07:49:45.783Z,44.39
2023-02-27T07:50:47.539Z,44.30
2023-02-27T07:51:49.323Z,44.26
2023-02-27T07:52:52.333Z,44.03
2023-02-27T07:53:56.504Z,44.52
2023-02-27T07:54:58.355Z,44.19
2023-02-27T07:56:00.214Z,43.84
2023-02-27T07:57:02.006Z,43.80
2023-02-27T07:58:03.770Z,44.25
2023-02-27T07:59:05.555Z,43.70
2023-02-27T08:00:09.897Z,43.46
2023-02-27T08:01:11.699Z,43.86
2023-02-27T08:02:13.434Z,43.71
2023-02-27T08:03:15.423Z,43.34
2023-02-27T08:04:17.271Z,43.86
2023-02-27T08:05:19.071Z,43.64
2023-02-27T08:06:21.308Z,43.51
2023-02-27T08:07:23.050Z,43.17
2023-02-27T08:08:24.834Z,43.33
2023-02-27T08:09:26.698Z,43.13
2023-02-27T08:10:29.093Z,42.92
2023-02-27T08:11:30.911Z,43.02
2023-02-27T08:12:32.957Z,42.86
2023-02-27T08:14:56.600Z,42.88
2023-02-27T08:15:58.395Z,42.33
2023-02-27T08:17:00.576Z,42.28
2023-02-27T08:18:02.477Z,42.30
2023-02-27T08:19:04.441Z,42.32
2023-02-27T08:20:07.465Z,42.04
2023-02-27T08:21:09.241Z,41.90
2023-02-27T08:22:12.257Z,41.78
2023-02-27T08:23:14.023Z,42.09
2023-02-27T08:24:15.834Z,41.68
2023-02-27T08:25:17.996Z,41.53
2023-02-27T08:26:20.911Z,42.07
2023-02-27T08:27:22.860Z,41.58
2023-02-27T08:28:25.354Z,41.33
2023-02-27T08:29:27.955Z,41.71
2023-02-27T08:30:29.856Z,41.05
2023-02-27T08:31:31.977Z,41.52
2023-02-27T08:32:34.399Z,40.96
2023-02-27T08:33:36.438Z,40.68
2023-02-27T08:34:38.324Z,41.21
2023-02-27T08:35:40.176Z,40.81
2023-02-27T08:36:42.485Z,40.55
2023-02-27T08:37:44.191Z,41.06
2023-02-27T08:38:45.961Z,40.56
2023-02-27T08:39:47.708Z,40.80
2023-02-27T08:40:53.431Z,40.68
2023-02-27T08:41:55.306Z,40.06
2023-02-27T08:42:57.069Z,39.97
2023-02-27T08:43:58.933Z,39.98
2023-02-27T08:45:00.976Z,39.69
2023-02-27T08:46:02.795Z,39.81
2023-02-27T08:47:04.817Z,40.12
2023-02-27T08:48:07.110Z,39.68
2023-02-27T08:49:08.877Z,39.74
2023-02-27T08:50:12.449Z,40.05
2023-02-27T08:51:14.181Z,39.06
2023-02-27T08:52:16.047Z,39.64
2023-02-27T08:53:17.823Z,39.60
2023-02-27T08:54:20.576Z,39.03
2023-02-27T08:55:22.446Z,38.96
2023-02-27T08:56:28.877Z,38.97
2023-02-27T08:57:30.976Z,39.02
2023-02-27T08:58:32.963Z,38.97
2023-02-27T08:59:34.780Z,38.51
2023-02-27T09:00:36.661Z,38.79
2023-02-27T09:01:38.434Z,38.57
2023-02-27T09:02:40.967Z,38.09
2023-02-27T09:03:42.758Z,38.21
2023-02-27T09:04:44.528Z,38.00
2023-02-27T09:05:49.317Z,38.58
2023-02-27T09:06:51.130Z,38.28
2023-02-27T09:07:53.088Z,38.06
2023-02-27T09:08:56.166Z,37.92
2023-02-27T09:09:57.966Z,37.99
2023-02-27T09:10:59.765Z,37.81
2023-02-27T09:12:01.529Z,37.47
2023-02-27T09:13:03.406Z,37.60
2023-02-27T09:14:05.485Z,37.14
2023-02-27T09:15:08.936Z,37.37
2023-02-27T09:16:10.678Z,37.31
2023-02-27T09:17:12.462Z,36.75
2023-02-27T09:18:14.247Z,37.10
2023-02-27T09:19:16.041Z,37.24
2023-02-27T09:20:18.009Z,36.68
2023-02-27T09:21:20.589Z,36.63
2023-02-27T09:22:22.494Z,36.48
2023-02-27T09:23:24.353Z,36.35
2023-02-27T09:24:26.288Z,36.41
2023-02-27T09:25:29.210Z,36.77
2023-02-27T09:26:42.212Z,35.96
2023-02-27T09:27:46.850Z,36.32
2023-02-27T09:28:49.528Z,36.29
2023-02-27T09:29:56.253Z,35.62
2023-02-27T09:31:06.294Z,36.26
2023-02-27T09:32:08.751Z,36.11
2023-02-27T09:33:10.601Z,36.10
2023-02-27T09:34:12.383Z,35.45
2023-02-27T09:35:15.825Z,34.84
2023-02-27T09:36:17.726Z,33.37
2023-02-27T09:37:19.945Z,32.68
2023-02-27T09:38:21.747Z,31.25
2023-02-27T09:39:23.491Z,29.82
2023-02-27T09:40:32.870Z,28.84
2023-02-27T09:42:00.685Z,27.85
2023-02-27T09:43:23.714Z,26.94
2023-02-27T09:44:46.175Z,26.34
2023-02-27T09:45:55.166Z,25.53
2023-02-27T09:46:57.731Z,24.76
2023-02-27T09:48:15.324Z,24.15
2023-02-27T09:49:23.707Z,23.21
2023-02-27T09:50:42.300Z,22.55
2023-02-27T09:51:44.122Z,22.02
2023-02-27T09:52:46.046Z,21.57
2023-02-27T09:53:52.230Z,21.07
2023-02-27T09:54:55.174Z,20.93
2023-02-27T09:56:23.906Z,20.35
2023-02-27T09:57:44.814Z,20.47
2023-02-27T09:59:53.613Z,19.97
2023-02-27T10:01:18.861Z,19.79
2023-02-27T10:02:23.663Z,19.22
2023-02-27T10:03:43.286Z,18.92
2023-02-27T10:05:18.015Z,18.56
2023-02-27T10:06:37.270Z,18.27
2023-02-27T10:08:12.391Z,18.20
2023-02-27T10:09:58.089Z,18.15
2023-02-27T10:11:12.941Z,17.35
2023-02-27T10:12:20.953Z,17.07
2023-02-27T10:13:41.955Z,17.24
2023-02-27T10:14:53.650Z,17.12
2023-02-27T10:15:57.861Z,16.49
2023-02-27T10:17:05.997Z,16.13
2023-02-27T10:18:25.561Z,16.01
2023-02-27T10:19:36.341Z,15.88
2023-02-27T10:20:46.909Z,16.10
2023-02-27T10:21:53.760Z,15.99
2023-02-27T10:23:01.647Z,15.79
2023-02-27T10:24:15.005Z,15.49
2023-02-27T10:25:31.172Z,15.78
2023-02-27T10:26:41.673Z,15.43
2023-02-27T10:27:53.378Z,14.87
2023-02-27T10:28:55.159Z,15.43
2023-02-27T10:30:30.401Z,15.26
2023-02-27T10:31:35.895Z,14.76
2023-02-27T10:32:40.030Z,14.88
2023-02-27T10:33:44.780Z,15.40
2023-02-27T10:35:09.314Z,14.87
2023-02-27T10:36:20.609Z,14.94
2023-02-27T10:37:30.103Z,15.04
2023-02-27T10:38:39.060Z,15.03
2023-02-27T10:39:55.094Z,14.88
2023-02-27T10:41:00.304Z,15.04
2023-02-27T10:42:10.766Z,14.77
2023-02-27T10:43:19.409Z,14.97
2023-02-27T10:44:21.374Z,14.99
2023-02-27T10:45:23.275Z,14.83
2023-02-27T10:46:32.102Z,14.40
2023-02-27T10:47:34.138Z,14.67
2023-02-27T10:48:36.397Z,14.21
2023-02-27T10:49:39.444Z,14.10
2023-02-27T10:50:45.426Z,14.22
2023-02-27T10:52:10.717Z,14.20
2023-02-27T10:53:27.847Z,14.34
2023-02-27T10:54:29.592Z,14.22
2023-02-27T10:55:36.250Z,14.19
2023-02-27T10:56:39.392Z,13.80
2023-02-27T10:57:43.130Z,13.90
2023-02-27T10:58:45.637Z,13.61
2023-02-27T11:00:28.208Z,14.02
2023-02-27T11:01:48.764Z,13.48
2023-02-27T11:02:52.303Z,13.37
2023-02-27T11:03:56.810Z,13.25
2023-02-27T11:05:00.403Z,13.28
2023-02-27T11:06:14.099Z,13.19
2023-02-27T11:07:25.851Z,13.40
2023-02-27T11:08:32.230Z,13.23
2023-02-27T11:09:36.197Z,12.89
2023-02-27T11:10:53.648Z,12.70
2023-02-27T11:12:11.585Z,13.36
2023-02-27T11:13:21.998Z,12.93
2023-02-27T11:14:33.017Z,13.15
2023-02-27T11:15:38.466Z,13.09
2023-02-27T11:16:52.826Z,13.03
2023-02-27T11:17:55.062Z,12.89
2023-02-27T11:18:57.907Z,13.07
2023-02-27T11:20:05.995Z,12.53
2023-02-27T11:21:27.089Z,12.39
2023-02-27T11:22:31.991Z,12.59
2023-02-27T11:23:34.408Z,12.84
2023-02-27T11:24:36.251Z,12.38
2023-02-27T11:25:38.098Z,12.94
2023-02-27T11:26:55.332Z,12.68
2023-02-27T11:28:30.744Z,12.83
2023-02-27T11:29:34.565Z,13.16
2023-02-27T11:30:36.320Z,12.76
2023-02-27T11:31:39.810Z,12.72
2023-02-27T11:32:51.228Z,12.86
2023-02-27T11:33:57.716Z,12.80
2023-02-27T11:34:59.677Z,13.02
2023-02-27T11:36:03.891Z,12.86
2023-02-27T11:37:36.844Z,13.26
2023-02-27T11:38:38.625Z,13.43
2023-02-27T11:39:58.429Z,13.22
2023-02-27T11:41:04.398Z,12.77
2023-02-27T11:42:26.147Z,12.59
2023-02-27T11:43:52.057Z,13.45
2023-02-27T11:46:09.911Z,12.84
2023-02-27T11:46:47.776Z,13.15
2023-02-27T11:48:01.219Z,12.81
2023-02-27T11:50:09.820Z,13.04
2023-02-27T11:51:20.044Z,12.81
2023-02-27T11:52:38.060Z,12.66
2023-02-27T11:54:13.540Z,12.57
2023-02-27T11:55:21.756Z,12.46
2023-02-27T11:56:34.127Z,12.38
